createdAt,value
2018-02-18T00:00:56.741Z,102146.92
2018-02-18T00:03:25.684Z,102141.56
2018-02-18T00:05:54.669Z,102139.78
2018-02-18T00:08:57.677Z,102150.56
2018-02-18T00:11:26.768Z,102144.12
2018-02-18T00:13:55.852Z,102141.38
2018-02-18T00:19:06.537Z,102134.53
2018-02-18T00:21:35.527Z,102136.55
2018-02-18T00:24:34.349Z,102137.84
2018-02-18T00:27:03.476Z,102128.31
2018-02-18T00:30:20.196Z,102116.28
2018-02-18T00:32:49.504Z,102115.75
2018-02-18T00:36:12.641Z,102111.41
2018-02-18T00:38:41.657Z,102109.80
2018-02-18T00:41:10.600Z,102106.09
2018-02-18T00:43:39.644Z,102098.59
2018-02-18T00:46:08.802Z,102102.13
2018-02-18T00:48:37.754Z,102099.83
2018-02-18T00:51:06.683Z,102094.64
2018-02-18T00:53:35.687Z,102094.34
2018-02-18T00:56:04.629Z,102094.34
2018-02-18T00:58:33.749Z,102083.44
2018-02-18T01:01:02.701Z,102081.44
2018-02-18T01:06:15.665Z,102076.69
2018-02-18T01:08:44.724Z,102068.48
2018-02-18T01:11:13.643Z,102069.39
2018-02-18T01:13:42.675Z,102058.86
2018-02-18T01:17:35.486Z,102056.04
2018-02-18T01:20:04.499Z,102049.75
2018-02-18T01:22:33.491Z,102044.53
2018-02-18T01:25:02.675Z,102037.83
2018-02-18T01:27:31.708Z,102040.91
2018-02-18T01:30:00.688Z,102040.49
2018-02-18T01:32:29.679Z,102037.67
2018-02-18T01:34:58.703Z,102038.90
2018-02-18T01:37:27.760Z,102036.47
2018-02-18T01:39:56.683Z,102038.88
2018-02-18T01:42:25.757Z,102045.15
2018-02-18T01:44:54.691Z,102034.92
2018-02-18T01:47:23.804Z,102035.11
2018-02-18T01:49:52.705Z,102028.02
2018-02-18T01:54:08.738Z,102031.93
2018-02-18T01:56:37.664Z,102039.06
2018-02-18T01:59:47.716Z,102029.41
2018-02-18T02:03:00.745Z,102022.19
2018-02-18T02:05:29.689Z,102021.84
2018-02-18T02:07:58.741Z,102021.41
2018-02-18T02:10:27.749Z,102013.34
2018-02-18T02:12:56.672Z,102012.38
2018-02-18T02:15:25.764Z,102005.66
2018-02-18T02:17:54.704Z,102009.93
2018-02-18T02:20:23.877Z,102011.03
2018-02-18T02:22:51.991Z,102004.67
2018-02-18T02:26:40.744Z,102002.33
2018-02-18T02:30:09.472Z,102001.60
2018-02-18T02:32:38.740Z,101998.97
2018-02-18T02:35:07.702Z,101998.96
2018-02-18T02:37:37.378Z,101997.20
2018-02-18T02:40:06.403Z,101992.57
2018-02-18T02:45:20.660Z,101998.21
2018-02-18T02:47:49.696Z,101989.26
2018-02-18T02:50:18.636Z,101995.13
2018-02-18T02:52:47.676Z,101981.73
2018-02-18T02:58:04.627Z,101988.71
2018-02-18T03:00:33.629Z,101999.29
2018-02-18T03:03:02.713Z,101999.91
2018-02-18T03:05:31.890Z,101996.34
2018-02-18T03:08:00.586Z,101990.47
2018-02-18T03:10:29.639Z,101994.95
2018-02-18T03:13:00.797Z,101990.02
2018-02-18T03:15:29.663Z,101990.70
2018-02-18T03:17:58.797Z,101993.50
2018-02-18T03:20:27.708Z,101988.72
2018-02-18T03:27:09.743Z,101986.33
2018-02-18T03:30:35.789Z,101996.20
2018-02-18T03:33:04.737Z,101990.16
2018-02-18T03:35:33.769Z,101995.95
2018-02-18T03:38:02.793Z,101990.34
2018-02-18T03:42:15.667Z,101988.03
2018-02-18T03:44:44.683Z,101990.98
2018-02-18T03:47:13.689Z,101985.83
2018-02-18T03:49:42.749Z,101986.37
2018-02-18T03:54:50.726Z,101985.53
2018-02-18T03:57:19.639Z,101987.28
2018-02-18T03:59:48.645Z,101988.83
2018-02-18T04:02:17.685Z,101993.44
2018-02-18T04:04:46.632Z,101985.23
2018-02-18T04:07:15.697Z,101982.71
2018-02-18T04:10:17.581Z,101985.30
2018-02-18T04:12:46.859Z,101991.37
2018-02-18T04:15:15.784Z,101991.48
2018-02-18T04:17:44.785Z,101990.36
2018-02-18T04:20:13.685Z,101992.36
2018-02-18T04:22:42.672Z,101992.30
2018-02-18T04:25:11.914Z,101986.44
2018-02-18T04:27:40.517Z,101987.62
2018-02-18T04:30:09.654Z,101985.72
2018-02-18T04:32:39.228Z,101992.41
2018-02-18T04:37:56.466Z,101990.72
2018-02-18T04:40:26.063Z,101998.06
2018-02-18T04:42:55.514Z,101989.67
2018-02-18T04:45:24.821Z,101999.98
2018-02-18T04:47:53.877Z,101998.61
2018-02-18T04:50:22.716Z,101998.28
2018-02-18T04:52:52.184Z,101991.06
2018-02-18T04:55:21.512Z,101988.14
2018-02-18T04:57:50.620Z,101983.23
2018-02-18T05:00:20.237Z,101990.41
2018-02-18T05:02:49.789Z,101990.67
2018-02-18T05:05:18.687Z,101991.60
2018-02-18T05:10:07.488Z,102000.67
2018-02-18T05:12:36.859Z,102008.14
2018-02-18T05:15:06.244Z,102003.34
2018-02-18T05:17:35.817Z,101997.48
2018-02-18T05:20:04.879Z,101994.03
2018-02-18T05:22:34.130Z,101992.16
2018-02-18T05:25:03.746Z,101995.14
2018-02-18T05:27:32.715Z,101995.90
2018-02-18T05:30:01.752Z,101997.11
2018-02-18T05:32:30.872Z,102002.52
2018-02-18T05:35:00.210Z,102002.66
2018-02-18T05:37:29.544Z,102001.41
2018-02-18T05:39:58.783Z,102001.43
2018-02-18T05:44:13.207Z,102006.80
2018-02-18T05:50:31.573Z,102002.47
2018-02-18T05:53:23.801Z,102001.11
2018-02-18T05:55:52.829Z,102006.37
2018-02-18T05:58:21.775Z,101999.86
2018-02-18T06:00:51.541Z,101994.94
2018-02-18T06:03:20.752Z,101992.28
2018-02-18T06:07:13.037Z,101990.63
2018-02-18T06:09:41.803Z,101988.69
2018-02-18T06:12:11.230Z,101980.66
2018-02-18T06:14:40.790Z,101974.92
2018-02-18T06:19:08.933Z,101979.88
2018-02-18T06:21:37.283Z,101972.66
2018-02-18T06:24:06.676Z,101977.26
2018-02-18T06:26:35.732Z,101970.69
2018-02-18T06:30:32.736Z,101969.25
2018-02-18T06:35:45.731Z,101964.86
2018-02-18T06:38:14.911Z,101964.27
2018-02-18T06:40:43.051Z,101962.78
2018-02-18T06:43:11.707Z,101966.88
2018-02-18T06:45:40.695Z,101962.17
2018-02-18T06:48:09.738Z,101969.80
2018-02-18T06:50:38.781Z,101966.98
2018-02-18T06:53:07.768Z,101963.62
2018-02-18T06:55:36.663Z,101974.30
2018-02-18T06:58:05.703Z,101975.33
2018-02-18T07:00:34.687Z,101974.55
2018-02-18T07:03:03.716Z,101968.52
2018-02-18T07:05:32.773Z,101976.41
2018-02-18T07:10:35.712Z,101973.20
2018-02-18T07:13:04.694Z,101970.62
2018-02-18T07:15:33.741Z,101966.53
2018-02-18T07:18:02.656Z,101964.04
2018-02-18T07:20:32.185Z,101965.69
2018-02-18T07:23:01.219Z,101965.67
2018-02-18T07:25:30.707Z,101955.62
2018-02-18T07:27:59.695Z,101958.05
2018-02-18T07:30:28.730Z,101955.67
2018-02-18T07:32:57.740Z,101962.88
2018-02-18T07:35:29.511Z,101941.45
2018-02-18T07:37:58.761Z,101937.55
2018-02-18T07:40:32.774Z,101936.56
2018-02-18T07:43:08.855Z,101934.41
2018-02-18T07:45:39.990Z,101935.23
2018-02-18T07:48:08.637Z,101939.06
2018-02-18T07:50:37.575Z,101935.27
2018-02-18T07:53:06.680Z,101935.70
2018-02-18T07:55:35.736Z,101935.09
2018-02-18T07:58:04.761Z,101928.28
2018-02-18T08:00:33.639Z,101921.09
2018-02-18T08:03:02.623Z,101923.92
2018-02-18T08:05:31.717Z,101919.85
2018-02-18T08:08:00.656Z,101919.91
2018-02-18T08:10:29.668Z,101911.27
2018-02-18T08:14:49.541Z,101904.75
2018-02-18T08:17:18.656Z,101907.80
2018-02-18T08:19:47.769Z,101907.77
2018-02-18T08:22:16.753Z,101906.88
2018-02-18T08:24:45.757Z,101910.69
2018-02-18T08:27:14.644Z,101910.26
2018-02-18T08:29:43.648Z,101911.06
2018-02-18T08:32:12.620Z,101911.61
2018-02-18T08:34:41.761Z,101906.88
2018-02-18T08:37:10.692Z,101915.30
2018-02-18T08:39:39.685Z,101909.05
2018-02-18T08:44:43.709Z,101912.70
2018-02-18T08:47:12.630Z,101904.91
2018-02-18T08:49:41.627Z,101893.46
2018-02-18T08:52:10.702Z,101897.97
2018-02-18T08:54:39.844Z,101892.95
2018-02-18T08:57:11.462Z,101888.41
2018-02-18T08:59:40.421Z,101894.33
2018-02-18T09:02:09.556Z,101884.16
2018-02-18T09:04:38.559Z,101882.26
2018-02-18T09:07:07.681Z,101879.84
2018-02-18T09:09:36.659Z,101879.53
2018-02-18T09:12:05.644Z,101876.41
2018-02-18T09:14:34.652Z,101873.95
2018-02-18T09:17:03.718Z,101873.12
2018-02-18T09:19:32.685Z,101871.88
2018-02-18T09:22:01.696Z,101872.36
2018-02-18T09:24:30.746Z,101865.88
2018-02-18T09:26:59.659Z,101874.30
2018-02-18T09:29:28.627Z,101873.80
2018-02-18T09:31:57.716Z,101869.61
2018-02-18T09:34:26.625Z,101861.47
2018-02-18T09:38:51.775Z,101859.05
2018-02-18T09:41:20.704Z,101847.59
2018-02-18T09:43:49.708Z,101849.23
2018-02-18T09:46:18.877Z,101844.36
2018-02-18T09:48:47.684Z,101842.26
2018-02-18T09:51:16.760Z,101832.36
2018-02-18T09:53:45.786Z,101827.21
2018-02-18T09:56:14.737Z,101827.77
2018-02-18T09:58:43.683Z,101827.58
2018-02-18T10:01:12.714Z,101829.13
2018-02-18T10:04:52.730Z,101825.30
2018-02-18T10:07:21.631Z,101826.27
2018-02-18T10:09:50.813Z,101823.81
2018-02-18T10:12:19.747Z,101815.27
2018-02-18T10:14:48.685Z,101813.07
2018-02-18T10:17:17.623Z,101818.94
2018-02-18T10:19:46.607Z,101812.27
2018-02-18T10:22:15.541Z,101801.68
2018-02-18T10:26:12.501Z,101793.22
2018-02-18T10:28:41.661Z,101794.95
2018-02-18T10:31:10.676Z,101797.77
2018-02-18T10:33:39.773Z,101788.41
2018-02-18T10:36:51.669Z,101788.75
2018-02-18T10:39:20.611Z,101790.52
2018-02-18T10:41:49.572Z,101781.16
2018-02-18T10:44:18.653Z,101778.70
2018-02-18T10:48:20.729Z,101784.05
2018-02-18T10:50:49.681Z,101781.02
2018-02-18T10:55:05.214Z,101778.59
2018-02-18T10:57:34.649Z,101773.30
2018-02-18T11:00:03.619Z,101764.55
2018-02-18T11:02:32.710Z,101760.70
2018-02-18T11:05:01.624Z,101757.95
2018-02-18T11:07:30.616Z,101754.69
2018-02-18T11:09:59.700Z,101748.11
2018-02-18T11:12:28.744Z,101746.33
2018-02-18T11:14:57.631Z,101748.14
2018-02-18T11:17:26.723Z,101746.25
2018-02-18T11:19:55.877Z,101741.91
2018-02-18T11:22:24.752Z,101742.31
2018-02-18T11:24:53.671Z,101738.80
2018-02-18T11:28:20.308Z,101733.91
2018-02-18T11:30:48.979Z,101731.98
2018-02-18T11:33:17.437Z,101726.97
2018-02-18T11:35:46.660Z,101719.34
2018-02-18T11:39:20.692Z,101715.98
2018-02-18T11:43:19.717Z,101721.22
2018-02-18T11:45:48.766Z,101712.91
2018-02-18T11:48:17.807Z,101712.93
2018-02-18T11:50:46.651Z,101711.59
2018-02-18T11:53:15.753Z,101711.21
2018-02-18T11:55:44.729Z,101713.78
2018-02-18T11:58:13.632Z,101710.41
2018-02-18T12:00:42.680Z,101700.91
2018-02-18T12:03:11.760Z,101705.80
2018-02-18T12:05:40.707Z,101698.70
2018-02-18T12:08:09.632Z,101702.71
2018-02-18T12:10:38.762Z,101697.36
2018-02-18T12:13:07.757Z,101702.48
2018-02-18T12:15:36.631Z,101696.75
2018-02-18T12:20:43.344Z,101698.66
2018-02-18T12:23:12.524Z,101702.92
2018-02-18T12:26:45.537Z,101704.13
2018-02-18T12:33:00.683Z,101692.47
2018-02-18T12:35:29.781Z,101695.33
2018-02-18T12:37:58.677Z,101688.28
2018-02-18T12:40:27.797Z,101687.17
2018-02-18T12:42:56.758Z,101686.16
2018-02-18T12:45:25.797Z,101693.39
2018-02-18T12:47:54.780Z,101700.02
2018-02-18T12:50:23.788Z,101693.95
2018-02-18T12:52:52.632Z,101693.09
2018-02-18T12:55:21.687Z,101688.27
2018-02-18T12:59:24.739Z,101693.09
2018-02-18T13:01:53.708Z,101688.78
2018-02-18T13:04:22.773Z,101697.50
2018-02-18T13:06:51.682Z,101696.28
2018-02-18T13:09:20.761Z,101698.34
2018-02-18T13:14:07.320Z,101694.39
2018-02-18T13:16:36.695Z,101695.80
2018-02-18T13:19:05.789Z,101690.24
2018-02-18T13:21:34.686Z,101689.32
2018-02-18T13:24:03.778Z,101688.09
2018-02-18T13:26:32.737Z,101686.84
2018-02-18T13:29:01.675Z,101689.62
2018-02-18T13:31:30.797Z,101685.88
2018-02-18T13:33:59.712Z,101686.70
2018-02-18T13:36:28.735Z,101686.31
2018-02-18T13:38:57.808Z,101692.69
2018-02-18T13:41:26.747Z,101687.80
2018-02-18T13:43:55.712Z,101689.99
2018-02-18T13:46:24.793Z,101686.61
2018-02-18T13:48:53.705Z,101687.16
2018-02-18T13:51:22.826Z,101677.80
2018-02-18T13:54:29.609Z,101679.87
2018-02-18T13:56:58.636Z,101675.03
2018-02-18T13:59:27.668Z,101680.75
2018-02-18T14:01:56.797Z,101678.17
2018-02-18T14:04:25.705Z,101680.85
2018-02-18T14:06:54.668Z,101680.38
2018-02-18T14:09:23.720Z,101686.48
2018-02-18T14:11:52.873Z,101680.70
2018-02-18T14:14:22.680Z,101672.48
2018-02-18T14:16:51.800Z,101670.58
2018-02-18T14:20:00.499Z,101671.84
2018-02-18T14:22:29.493Z,101662.18
2018-02-18T14:27:07.624Z,101673.42
2018-02-18T14:29:36.754Z,101666.00
2018-02-18T14:32:05.698Z,101666.47
2018-02-18T14:34:34.680Z,101666.54
2018-02-18T14:37:03.726Z,101665.98
2018-02-18T14:39:32.656Z,101672.67
2018-02-18T14:42:13.526Z,101673.33
2018-02-18T14:44:54.452Z,101670.43
2018-02-18T14:47:35.648Z,101673.50
2018-02-18T14:50:16.678Z,101671.34
2018-02-18T14:55:54.515Z,101669.27
2018-02-18T14:58:23.736Z,101683.81
2018-02-18T15:00:52.789Z,101677.69
2018-02-18T15:03:21.740Z,101679.59
2018-02-18T15:05:50.675Z,101673.53
2018-02-18T15:13:02.670Z,101671.41
2018-02-18T15:15:31.623Z,101678.83
2018-02-18T15:18:00.689Z,101672.16
2018-02-18T15:20:29.766Z,101672.61
2018-02-18T15:22:58.682Z,101674.24
2018-02-18T15:25:27.664Z,101682.16
2018-02-18T15:30:07.704Z,101675.38
2018-02-18T15:34:23.408Z,101679.19
2018-02-18T15:36:52.500Z,101682.86
2018-02-18T15:39:21.552Z,101691.56
2018-02-18T15:41:50.743Z,101690.68
2018-02-18T15:44:19.769Z,101692.41
2018-02-18T15:48:12.607Z,101689.85
2018-02-18T15:50:41.646Z,101691.32
2018-02-18T15:53:10.608Z,101696.34
2018-02-18T15:55:39.612Z,101698.94
2018-02-18T15:58:08.736Z,101702.91
2018-02-18T16:00:37.745Z,101707.95
2018-02-18T16:03:06.624Z,101716.52
2018-02-18T16:05:35.684Z,101716.67
2018-02-18T16:08:04.731Z,101721.44
2018-02-18T16:10:33.752Z,101721.44
2018-02-18T16:13:02.761Z,101724.44
2018-02-18T16:15:31.693Z,101724.28
2018-02-18T16:18:00.610Z,101724.73
2018-02-18T16:22:49.805Z,101727.59
2018-02-18T16:25:18.853Z,101729.77
2018-02-18T16:27:47.726Z,101736.72
2018-02-18T16:31:12.009Z,101741.66
2018-02-18T16:33:40.771Z,101741.26
2018-02-18T16:36:09.760Z,101742.33
2018-02-18T16:38:38.701Z,101748.19
2018-02-18T16:41:07.632Z,101749.81
2018-02-18T16:43:36.761Z,101747.49
2018-02-18T16:46:05.713Z,101751.45
2018-02-18T16:48:34.632Z,101747.63
2018-02-18T16:51:03.622Z,101752.64
2018-02-18T16:53:32.813Z,101742.59
2018-02-18T16:56:01.660Z,101748.53
2018-02-18T16:58:30.746Z,101742.88
2018-02-18T17:01:01.397Z,101743.06
2018-02-18T17:03:30.957Z,101748.02
2018-02-18T17:05:59.640Z,101750.47
2018-02-18T17:09:35.696Z,101751.27
2018-02-18T17:12:06.312Z,101747.83
2018-02-18T17:14:35.427Z,101753.92
2018-02-18T17:17:04.766Z,101747.04
2018-02-18T17:19:34.181Z,101743.20
2018-02-18T17:22:03.900Z,101738.71
2018-02-18T17:24:32.572Z,101741.19
2018-02-18T17:27:01.712Z,101750.75
2018-02-18T17:29:30.912Z,101750.08
2018-02-18T17:32:31.052Z,101754.23
2018-02-18T17:35:00.578Z,101753.70
2018-02-18T17:37:29.808Z,101750.20
2018-02-18T17:39:58.732Z,101753.88
2018-02-18T17:44:17.708Z,101746.63
2018-02-18T17:49:35.725Z,101750.31
2018-02-18T17:59:46.834Z,101755.08
2018-02-18T18:02:16.320Z,101741.24
2018-02-18T18:04:45.790Z,101742.72
2018-02-18T18:07:14.732Z,101742.66
2018-02-18T18:09:43.748Z,101748.62
2018-02-18T18:12:13.199Z,101747.20
2018-02-18T18:14:42.274Z,101740.84
2018-02-18T18:17:11.780Z,101744.31
2018-02-18T18:19:41.167Z,101744.69
2018-02-18T18:22:10.711Z,101739.55
2018-02-18T18:24:39.681Z,101746.90
2018-02-18T18:27:08.817Z,101746.64
2018-02-18T18:29:37.789Z,101748.96
2018-02-18T18:32:06.712Z,101753.33
2018-02-18T18:34:35.815Z,101755.64
2018-02-18T18:37:04.941Z,101753.84
2018-02-18T18:42:19.195Z,101754.47
2018-02-18T18:44:48.042Z,101756.00
2018-02-18T18:47:17.680Z,101759.53
2018-02-18T18:49:46.684Z,101749.34
2018-02-18T18:52:15.802Z,101753.03
2018-02-18T18:56:01.749Z,101766.16
2018-02-18T18:58:30.717Z,101764.73
2018-02-18T19:00:59.661Z,101757.54
2018-02-18T19:04:14.689Z,101753.16
2018-02-18T19:06:43.689Z,101752.52
2018-02-18T19:09:12.692Z,101755.78
2018-02-18T19:11:41.676Z,101755.24
2018-02-18T19:14:10.741Z,101756.81
2018-02-18T19:16:39.769Z,101758.78
2018-02-18T19:19:08.686Z,101765.52
2018-02-18T19:21:37.628Z,101761.22
2018-02-18T19:24:06.684Z,101772.73
2018-02-18T19:26:35.723Z,101779.14
2018-02-18T19:29:04.673Z,101779.42
2018-02-18T19:31:33.677Z,101778.72
2018-02-18T19:34:02.655Z,101779.26
2018-02-18T19:36:31.692Z,101771.66
2018-02-18T19:39:00.698Z,101766.92
2018-02-18T19:41:58.413Z,101769.89
2018-02-18T19:44:27.206Z,101768.27
2018-02-18T19:46:55.853Z,101769.19
2018-02-18T19:49:25.189Z,101762.75
2018-02-18T19:51:54.229Z,101764.00
2018-02-18T19:54:23.661Z,101769.11
2018-02-18T19:59:31.486Z,101760.47
2018-02-18T20:02:00.615Z,101759.28
2018-02-18T20:04:29.668Z,101757.65
2018-02-18T20:06:59.614Z,101761.33
2018-02-18T20:11:39.733Z,101762.03
2018-02-18T20:16:04.217Z,101769.63
2018-02-18T20:18:33.645Z,101763.34
2018-02-18T20:21:02.706Z,101762.67
2018-02-18T20:23:31.644Z,101766.45
2018-02-18T20:29:06.612Z,101764.47
2018-02-18T20:31:35.625Z,101765.70
2018-02-18T20:34:04.680Z,101757.83
2018-02-18T20:36:33.623Z,101757.02
2018-02-18T20:39:02.660Z,101759.98
2018-02-18T20:41:31.681Z,101764.08
2018-02-18T20:44:00.769Z,101761.63
2018-02-18T20:46:29.753Z,101770.32
2018-02-18T20:48:58.680Z,101761.77
2018-02-18T20:51:27.676Z,101765.55
2018-02-18T20:53:57.768Z,101766.42
2018-02-18T20:57:09.644Z,101757.41
2018-02-18T20:59:38.660Z,101761.83
2018-02-18T21:02:07.681Z,101763.33
2018-02-18T21:04:36.844Z,101764.33
2018-02-18T21:07:05.773Z,101773.70
2018-02-18T21:09:34.692Z,101774.26
2018-02-18T21:12:03.604Z,101763.66
2018-02-18T21:14:32.734Z,101765.96
2018-02-18T21:17:01.721Z,101765.96
2018-02-18T21:19:30.664Z,101768.42
2018-02-18T21:21:59.773Z,101768.94
2018-02-18T21:24:28.684Z,101765.08
2018-02-18T21:26:57.655Z,101766.48
2018-02-18T21:29:26.766Z,101771.82
2018-02-18T21:31:55.704Z,101769.10
2018-02-18T21:34:24.724Z,101774.66
2018-02-18T21:36:53.781Z,101772.61
2018-02-18T21:39:22.716Z,101770.02
2018-02-18T21:41:51.768Z,101773.81
2018-02-18T21:44:20.716Z,101777.38
2018-02-18T21:46:49.741Z,101773.45
2018-02-18T21:49:18.733Z,101772.89
2018-02-18T21:51:47.808Z,101768.27
2018-02-18T21:54:16.800Z,101762.70
2018-02-18T21:56:45.797Z,101757.80
2018-02-18T21:59:14.789Z,101754.65
2018-02-18T22:01:43.768Z,101764.00
2018-02-18T22:04:13.139Z,101769.50
2018-02-18T22:06:41.880Z,101773.34
2018-02-18T22:09:10.628Z,101774.10
2018-02-18T22:11:39.681Z,101771.80
2018-02-18T22:14:08.741Z,101778.88
2018-02-18T22:16:37.619Z,101771.94
2018-02-18T22:19:06.656Z,101772.23
2018-02-18T22:21:35.611Z,101765.69
2018-02-18T22:24:05.520Z,101762.72
2018-02-18T22:26:34.599Z,101767.05
2018-02-18T22:29:03.721Z,101760.81
2018-02-18T22:31:32.735Z,101766.45
2018-02-18T22:34:01.690Z,101768.23
2018-02-18T22:36:31.656Z,101771.20
2018-02-18T22:39:00.581Z,101774.17
2018-02-18T22:41:29.617Z,101775.28
2018-02-18T22:43:58.765Z,101767.98
2018-02-18T22:46:27.754Z,101773.02
2018-02-18T22:48:56.716Z,101765.41
2018-02-18T22:51:25.639Z,101759.58
2018-02-18T22:53:54.660Z,101760.96
2018-02-18T22:56:23.540Z,101756.59
2018-02-18T22:58:52.568Z,101756.59
2018-02-18T23:03:23.730Z,101748.27
2018-02-18T23:05:53.665Z,101741.50
2018-02-18T23:08:22.697Z,101737.36
2018-02-18T23:10:51.668Z,101741.08
2018-02-18T23:13:20.745Z,101741.48
2018-02-18T23:15:49.667Z,101745.70
2018-02-18T23:18:18.619Z,101754.54
2018-02-18T23:20:59.705Z,101756.60
2018-02-18T23:23:28.699Z,101748.05
2018-02-18T23:25:57.680Z,101743.42
2018-02-18T23:28:26.704Z,101750.07
2018-02-18T23:30:55.628Z,101745.59
2018-02-18T23:33:24.650Z,101737.59
2018-02-18T23:35:53.749Z,101732.55
2018-02-18T23:38:22.657Z,101739.48
2018-02-18T23:40:51.705Z,101729.20
2018-02-18T23:43:20.627Z,101728.24
2018-02-18T23:45:49.760Z,101727.08
2018-02-18T23:48:18.668Z,101730.62
2018-02-18T23:50:47.753Z,101734.23
2018-02-18T23:53:16.748Z,101730.75
2018-02-18T23:55:45.660Z,101740.96
2018-02-18T23:58:14.676Z,101737.03
